Strona główna
METAR-TAF:

METAR-TAF

Lotnisko :

Upshur County Regional Airport

Buckhannon, Wirginia Zachodnia, Stany Zjednoczone

Szerokość geograficzna: 39-00N, Długość geograficzna: 080-16W, wysokość: 498 m

Aktualna obserwacja pogody

Raport powstał 23 minut temu, godzina 11:35 UTC
Wiatr 5 kt od południowy zachód
Temperatura 20°C
Wilgotność 100%
Ciśnienie 1015 hPa
Widzialność: 16.1 km
Mało chmury na wysokości 900 ft
Przerywane chmury na wysokości 1400 ft
Zachmurzenie całkowite na wysokości 2200 ft

METAR: KW22 251135Z AUTO 23005KT 10SM FEW009 BKN014 OVC022 20/20 A2997 RMK AO2

czas: 07:58 (11:58 UTC)


TAF: brakujący

Obserwacja i prognoza pogody dla ponad 4000 lotnisk (raport METAR i TAF).

Dostępne stacje oznaczono żółtymi i czerwonymi punktami na mapie.

Najedź kursorem aby zobaczyć nazwę stacji.

Kliknij aby zobaczyć obserwacje i prognozy pogody.

Aby zmienić mapę: kliknij na zielony przycisk z czarnym krzyżykiem, aby powiększyć; na zielony przycisk z myślnikiem, aby pomniejszyć; na zielone strzałki, aby przejść do map sąsiednich.


METAR-TAF: